createdAt,value
2018-09-06T00:01:03.649Z,6.10
2018-09-06T00:03:32.464Z,5.87
2018-09-06T00:06:01.858Z,6.67
2018-09-06T00:08:32.231Z,6.33
2018-09-06T00:11:01.214Z,6.37
2018-09-06T00:13:30.008Z,6.00
2018-09-06T00:15:59.257Z,6.20
2018-09-06T00:18:28.428Z,5.60
2018-09-06T00:20:57.929Z,5.53
2018-09-06T00:23:28.793Z,5.50
2018-09-06T00:25:57.758Z,5.47
2018-09-06T00:28:26.934Z,5.30
2018-09-06T00:30:56.921Z,5.87
2018-09-06T00:33:26.006Z,5.77
2018-09-06T00:35:55.411Z,4.97
2018-09-06T00:38:24.560Z,5.10
2018-09-06T00:40:53.750Z,4.60
2018-09-06T00:43:23.155Z,5.37
2018-09-06T00:45:52.199Z,4.90
2018-09-06T00:48:20.959Z,4.97
2018-09-06T00:50:49.745Z,4.57
2018-09-06T00:53:19.308Z,4.50
2018-09-06T00:55:48.381Z,5.17
2018-09-06T00:58:18.206Z,4.57
2018-09-06T01:00:47.691Z,4.60
2018-09-06T01:03:16.833Z,4.87
2018-09-06T01:05:45.844Z,4.73
2018-09-06T01:08:15.385Z,4.73
2018-09-06T01:10:44.914Z,4.80
2018-09-06T01:13:14.130Z,4.83
2018-09-06T01:15:43.453Z,5.10
2018-09-06T01:18:12.780Z,4.80
2018-09-06T01:20:41.906Z,4.50
2018-09-06T01:23:12.943Z,4.53
2018-09-06T01:25:48.123Z,4.43
2018-09-06T01:28:18.244Z,4.30
2018-09-06T01:30:47.074Z,4.73
2018-09-06T01:33:16.368Z,3.97
2018-09-06T01:35:50.831Z,3.87
2018-09-06T01:38:19.645Z,4.30
2018-09-06T01:40:48.609Z,4.50
2018-09-06T01:43:18.913Z,4.67
2018-09-06T01:45:47.797Z,4.90
2018-09-06T01:48:16.831Z,4.90
2018-09-06T01:50:46.101Z,4.40
2018-09-06T01:53:15.386Z,4.57
2018-09-06T01:55:44.517Z,4.50
2018-09-06T01:58:15.559Z,4.57
2018-09-06T02:00:44.568Z,4.80
2018-09-06T02:03:13.724Z,4.13
2018-09-06T02:05:42.588Z,4.67
2018-09-06T02:08:11.806Z,4.27
2018-09-06T02:10:40.901Z,4.53
2018-09-06T02:13:09.723Z,4.60
2018-09-06T02:15:38.955Z,4.40
2018-09-06T02:18:08.314Z,4.17
2018-09-06T02:20:37.950Z,4.40
2018-09-06T02:23:07.154Z,4.60
2018-09-06T02:25:36.779Z,4.87
2018-09-06T02:28:05.958Z,4.30
2018-09-06T02:30:35.429Z,4.60
2018-09-06T02:33:04.840Z,5.10
2018-09-06T02:35:33.990Z,4.90
2018-09-06T02:38:02.798Z,4.20
2018-09-06T02:40:37.077Z,4.83
2018-09-06T02:43:06.506Z,4.70
2018-09-06T02:45:36.493Z,4.50
2018-09-06T02:48:05.602Z,4.87
2018-09-06T02:50:40.121Z,5.03
2018-09-06T02:53:08.958Z,4.50
2018-09-06T02:55:38.443Z,4.40
2018-09-06T02:58:07.349Z,4.60
2018-09-06T03:00:37.988Z,4.07
2018-09-06T03:03:06.907Z,4.53
2018-09-06T03:05:37.512Z,4.97
2018-09-06T03:08:06.534Z,4.60
2018-09-06T03:10:41.135Z,4.23
2018-09-06T03:13:10.503Z,4.50
2018-09-06T03:15:40.492Z,4.40
2018-09-06T03:18:09.511Z,4.20
2018-09-06T03:20:38.567Z,4.40
2018-09-06T03:23:09.347Z,4.20
2018-09-06T03:25:38.468Z,4.00
2018-09-06T03:28:07.916Z,4.87
2018-09-06T03:30:37.291Z,4.70
2018-09-06T03:33:06.194Z,4.40
2018-09-06T03:35:35.030Z,4.60
2018-09-06T03:38:05.058Z,4.47
2018-09-06T03:40:34.418Z,4.50
2018-09-06T03:43:03.659Z,4.40
2018-09-06T03:45:32.985Z,4.43
2018-09-06T03:48:01.748Z,4.50
2018-09-06T03:50:30.852Z,4.53
2018-09-06T03:53:00.807Z,4.83
2018-09-06T03:55:30.705Z,5.00
2018-09-06T03:58:00.008Z,4.67
2018-09-06T04:00:29.815Z,4.40
2018-09-06T04:02:58.827Z,4.60
2018-09-06T04:05:27.733Z,4.63
2018-09-06T04:07:56.857Z,4.60
2018-09-06T04:10:26.512Z,4.73
2018-09-06T04:12:55.513Z,4.83
2018-09-06T04:15:24.902Z,4.87
2018-09-06T04:17:54.418Z,4.60
2018-09-06T04:20:24.043Z,4.00
2018-09-06T04:22:53.291Z,4.23
2018-09-06T04:25:22.670Z,4.40
2018-09-06T04:27:53.537Z,4.50
2018-09-06T04:30:24.001Z,4.20
2018-09-06T04:32:52.803Z,4.10
2018-09-06T04:35:21.621Z,4.40
2018-09-06T04:37:50.469Z,4.30
2018-09-06T04:40:19.764Z,4.60
2018-09-06T04:42:48.851Z,4.13
2018-09-06T04:45:18.384Z,4.37
2018-09-06T04:47:47.473Z,4.10
2018-09-06T04:50:16.437Z,4.23
2018-09-06T04:52:45.245Z,4.37
2018-09-06T04:55:14.471Z,4.07
2018-09-06T04:57:43.605Z,4.00
2018-09-06T05:00:13.976Z,3.77
2018-09-06T05:02:44.958Z,4.10
2018-09-06T05:05:14.151Z,4.20
2018-09-06T05:07:43.391Z,4.03
2018-09-06T05:10:12.198Z,4.20
2018-09-06T05:12:41.313Z,4.17
2018-09-06T05:15:10.444Z,4.40
2018-09-06T05:17:40.702Z,4.10
2018-09-06T05:20:09.667Z,4.13
2018-09-06T05:22:38.939Z,4.27
2018-09-06T05:25:08.187Z,4.00
2018-09-06T05:27:37.432Z,4.20
2018-09-06T05:30:06.572Z,4.70
2018-09-06T05:32:36.192Z,3.90
2018-09-06T05:35:07.075Z,4.57
2018-09-06T05:37:36.826Z,4.33
2018-09-06T05:40:05.988Z,4.23
2018-09-06T05:42:35.976Z,4.30
2018-09-06T05:45:04.963Z,4.67
2018-09-06T05:47:33.937Z,4.33
2018-09-06T05:50:02.910Z,4.37
2018-09-06T05:52:32.752Z,4.40
2018-09-06T05:55:01.586Z,4.50
2018-09-06T05:57:33.481Z,4.57
2018-09-06T06:00:06.050Z,4.40
2018-09-06T06:02:35.408Z,4.40
2018-09-06T06:05:05.336Z,4.10
2018-09-06T06:07:45.043Z,4.50
2018-09-06T06:10:14.660Z,4.50
2018-09-06T06:12:44.132Z,5.10
2018-09-06T06:15:13.624Z,5.00
2018-09-06T06:17:43.158Z,5.30
2018-09-06T06:20:13.177Z,4.90
2018-09-06T06:22:44.589Z,5.30
2018-09-06T06:25:13.792Z,5.53
2018-09-06T06:27:42.587Z,5.50
2018-09-06T06:30:11.416Z,6.57
2018-09-06T06:32:40.260Z,5.83
2018-09-06T06:35:10.508Z,4.90
2018-09-06T06:37:41.309Z,4.90
2018-09-06T06:40:11.955Z,5.00
2018-09-06T06:42:41.082Z,5.10
2018-09-06T06:45:10.454Z,5.37
2018-09-06T06:47:39.270Z,5.30
2018-09-06T06:50:09.048Z,5.20
2018-09-06T06:52:42.395Z,5.43
2018-09-06T06:55:14.988Z,5.60
2018-09-06T06:57:46.293Z,6.00
2018-09-06T07:00:15.433Z,5.50
2018-09-06T07:02:44.897Z,5.60
2018-09-06T07:05:13.815Z,5.40
2018-09-06T07:07:43.015Z,5.50
2018-09-06T07:10:12.052Z,5.37
2018-09-06T07:12:40.838Z,5.70
2018-09-06T07:15:10.375Z,5.70
2018-09-06T07:17:39.556Z,6.37
2018-09-06T07:20:08.347Z,6.67
2018-09-06T07:22:38.021Z,7.40
2018-09-06T07:25:08.331Z,8.63
2018-09-06T07:27:37.386Z,7.37
2018-09-06T07:30:06.560Z,7.30
2018-09-06T07:32:35.883Z,7.20
2018-09-06T07:35:05.086Z,8.00
2018-09-06T07:37:34.379Z,9.10
2018-09-06T07:40:04.660Z,11.63
2018-09-06T07:42:35.928Z,10.37
2018-09-06T07:45:05.720Z,9.77
2018-09-06T07:47:34.990Z,8.80
2018-09-06T07:50:04.280Z,8.93
2018-09-06T07:52:34.165Z,9.87
2018-09-06T07:55:03.260Z,10.20
2018-09-06T07:57:32.556Z,10.50
2018-09-06T08:00:02.890Z,10.30
2018-09-06T08:02:31.717Z,9.87
2018-09-06T08:05:01.456Z,11.57
2018-09-06T08:07:30.470Z,9.70
2018-09-06T08:09:59.531Z,9.57
2018-09-06T08:12:28.345Z,8.93
2018-09-06T08:14:58.012Z,8.43
2018-09-06T08:17:26.906Z,7.87
2018-09-06T08:19:56.463Z,8.20
2018-09-06T08:22:25.784Z,7.87
2018-09-06T08:24:55.433Z,6.83
2018-09-06T08:27:24.620Z,6.67
2018-09-06T08:29:56.081Z,7.17
2018-09-06T08:32:26.515Z,6.77
2018-09-06T08:34:56.644Z,8.67
2018-09-06T08:37:26.004Z,7.97
2018-09-06T08:39:55.256Z,7.37
2018-09-06T08:42:24.298Z,7.80
2018-09-06T08:44:55.009Z,7.73
2018-09-06T08:47:25.240Z,7.20
2018-09-06T08:49:54.435Z,7.47
2018-09-06T08:52:23.777Z,6.17
2018-09-06T08:54:52.955Z,7.00
2018-09-06T08:57:23.348Z,6.73
2018-09-06T08:59:52.152Z,6.70
2018-09-06T09:02:23.277Z,6.60
2018-09-06T09:04:53.325Z,6.50
2018-09-06T09:07:22.701Z,6.60
2018-09-06T09:09:52.019Z,6.50
2018-09-06T09:12:21.567Z,5.87
2018-09-06T09:14:50.706Z,6.60
2018-09-06T09:17:24.960Z,5.77
2018-09-06T09:19:54.974Z,6.07
2018-09-06T09:22:26.343Z,5.57
2018-09-06T09:24:57.994Z,6.17
2018-09-06T09:27:26.918Z,7.00
2018-09-06T09:29:56.088Z,6.90
2018-09-06T09:32:25.497Z,6.47
2018-09-06T09:34:54.657Z,5.97
2018-09-06T09:37:24.768Z,6.30
2018-09-06T09:39:57.903Z,6.87
2018-09-06T09:42:27.123Z,6.80
2018-09-06T09:44:56.183Z,6.90
2018-09-06T09:49:53.551Z,7.03
2018-09-06T09:52:23.720Z,6.70
2018-09-06T09:54:53.202Z,6.67
2018-09-06T09:57:23.576Z,6.97
2018-09-06T09:59:54.092Z,7.60
2018-09-06T10:02:28.495Z,7.03
2018-09-06T10:07:05.208Z,8.23
2018-09-06T10:09:34.764Z,7.90
2018-09-06T10:12:04.084Z,6.57
2018-09-06T10:14:33.224Z,6.87
2018-09-06T10:17:02.297Z,6.87
2018-09-06T10:19:31.625Z,6.83
2018-09-06T10:22:04.016Z,7.67
2018-09-06T10:24:34.112Z,7.60
2018-09-06T10:27:03.248Z,5.97
2018-09-06T10:29:32.179Z,6.43
2018-09-06T10:32:00.996Z,6.80
2018-09-06T10:34:30.602Z,6.30
2018-09-06T10:36:59.763Z,6.87
2018-09-06T10:39:33.925Z,5.67
2018-09-06T10:42:06.155Z,5.63
2018-09-06T10:44:37.802Z,5.73
2018-09-06T10:47:06.675Z,5.37
2018-09-06T10:49:35.988Z,6.00
2018-09-06T10:52:05.387Z,5.47
2018-09-06T10:54:34.662Z,5.20
2018-09-06T10:57:04.339Z,4.90
2018-09-06T10:59:36.513Z,4.50
2018-09-06T11:02:05.859Z,4.33
2018-09-06T11:04:35.074Z,4.37
2018-09-06T11:07:05.246Z,4.10
2018-09-06T11:09:34.657Z,4.40
2018-09-06T11:12:04.088Z,4.00
2018-09-06T11:14:35.258Z,4.40
2018-09-06T11:17:06.149Z,4.07
2018-09-06T11:19:35.363Z,3.77
2018-09-06T11:22:04.655Z,3.50
2018-09-06T11:24:33.737Z,3.37
2018-09-06T11:27:02.582Z,3.37
2018-09-06T11:29:34.096Z,3.40
2018-09-06T11:32:03.590Z,3.60
2018-09-06T11:34:33.720Z,3.50
2018-09-06T11:37:06.816Z,3.47
2018-09-06T11:39:35.941Z,3.15
2018-09-06T11:42:05.378Z,2.98
2018-09-06T11:44:34.608Z,3.65
2018-09-06T11:47:03.609Z,3.00
2018-09-06T11:49:33.248Z,3.30
2018-09-06T11:52:03.294Z,3.37
2018-09-06T11:54:32.764Z,2.83
2018-09-06T11:57:02.074Z,3.05
2018-09-06T11:59:30.909Z,3.17
2018-09-06T12:02:01.094Z,3.00
2018-09-06T12:04:31.760Z,3.15
2018-09-06T12:07:01.553Z,2.60
2018-09-06T12:09:30.494Z,2.62
2018-09-06T12:11:59.956Z,2.60
2018-09-06T12:14:29.125Z,2.20
2018-09-06T12:16:58.149Z,2.30
2018-09-06T12:19:28.333Z,2.10
2018-09-06T12:21:58.414Z,1.90
2018-09-06T12:24:28.348Z,2.55
2018-09-06T12:26:57.956Z,2.00
2018-09-06T12:29:27.462Z,1.77
2018-09-06T12:31:57.629Z,2.37
2018-09-06T12:34:27.216Z,2.20
2018-09-06T12:36:57.258Z,2.02
2018-09-06T12:39:26.861Z,2.10
2018-09-06T12:41:56.281Z,2.40
2018-09-06T12:44:25.241Z,2.50
2018-09-06T12:46:54.088Z,2.20
2018-09-06T12:49:25.141Z,1.98
2018-09-06T12:51:56.794Z,2.00
2018-09-06T12:54:28.211Z,2.50
2018-09-06T12:56:57.762Z,2.33
2018-09-06T12:59:27.006Z,2.37
2018-09-06T13:01:56.185Z,2.55
2018-09-06T13:04:25.020Z,2.45
2018-09-06T13:06:54.329Z,2.50
2018-09-06T13:09:26.044Z,2.50
2018-09-06T13:11:59.064Z,3.10
2018-09-06T13:14:29.191Z,2.47
2018-09-06T13:16:58.385Z,2.58
2018-09-06T13:19:27.844Z,2.67
2018-09-06T13:21:57.228Z,3.33
2018-09-06T13:24:26.452Z,2.77
2018-09-06T13:26:56.212Z,2.87
2018-09-06T13:29:25.661Z,2.40
2018-09-06T13:31:54.646Z,2.60
2018-09-06T13:34:23.572Z,2.65
2018-09-06T13:36:53.308Z,2.58
2018-09-06T13:39:22.258Z,2.35
2018-09-06T13:41:51.577Z,2.37
2018-09-06T13:44:25.008Z,2.30
2018-09-06T13:46:53.984Z,2.37
2018-09-06T13:49:23.442Z,2.35
2018-09-06T13:51:52.428Z,1.98
2018-09-06T13:54:21.456Z,2.40
2018-09-06T13:56:50.627Z,2.12
2018-09-06T13:59:20.036Z,2.08
2018-09-06T14:01:50.809Z,2.30
2018-09-06T14:04:19.868Z,2.05
2018-09-06T14:06:48.963Z,2.17
2018-09-06T14:09:17.815Z,2.05
2018-09-06T14:11:46.951Z,2.20
2018-09-06T14:14:15.930Z,2.08
2018-09-06T14:16:46.334Z,2.00
2018-09-06T14:19:15.355Z,2.40
2018-09-06T14:21:44.756Z,2.42
2018-09-06T14:24:14.060Z,2.08
2018-09-06T14:26:43.081Z,2.50
2018-09-06T14:29:16.197Z,2.00
2018-09-06T14:31:45.340Z,1.77
2018-09-06T14:34:14.280Z,2.10
2018-09-06T14:36:43.689Z,2.10
2018-09-06T14:39:12.553Z,2.17
2018-09-06T14:41:41.636Z,1.57
2018-09-06T14:44:11.264Z,2.40
2018-09-06T14:46:40.044Z,2.15
2018-09-06T14:49:09.850Z,2.05
2018-09-06T14:51:38.635Z,2.12
2018-09-06T14:54:07.492Z,1.92
2018-09-06T14:56:36.670Z,1.72
2018-09-06T14:59:05.618Z,2.00
2018-09-06T15:01:35.097Z,2.05
2018-09-06T15:04:05.301Z,2.02
2018-09-06T15:06:34.201Z,1.75
2018-09-06T15:09:03.400Z,2.08
2018-09-06T15:11:32.227Z,2.00
2018-09-06T15:14:01.293Z,2.20
2018-09-06T15:16:30.689Z,1.92
2018-09-06T15:19:01.497Z,2.22
2018-09-06T15:21:31.507Z,2.50
2018-09-06T15:24:00.740Z,2.05
2018-09-06T15:26:30.206Z,2.12
2018-09-06T15:28:59.426Z,2.30
2018-09-06T15:31:28.849Z,1.95
2018-09-06T15:33:58.212Z,2.40
2018-09-06T15:36:29.161Z,2.30
2018-09-06T15:39:04.890Z,2.37
2018-09-06T15:41:33.822Z,2.37
2018-09-06T15:44:04.765Z,2.45
2018-09-06T15:46:34.773Z,2.33
2018-09-06T15:49:03.800Z,2.40
2018-09-06T15:51:32.884Z,2.90
2018-09-06T15:54:02.096Z,2.50
2018-09-06T15:56:31.270Z,2.20
2018-09-06T15:59:05.384Z,2.30
2018-09-06T16:01:37.684Z,2.40
2018-09-06T16:04:08.161Z,2.80
2018-09-06T16:06:38.558Z,2.70
2018-09-06T16:09:07.763Z,2.77
2018-09-06T16:11:36.990Z,2.90
2018-09-06T16:14:05.819Z,3.20
2018-09-06T16:16:35.030Z,2.50
2018-09-06T16:19:12.533Z,2.67
2018-09-06T16:21:41.782Z,2.80
2018-09-06T16:24:12.254Z,2.90
2018-09-06T16:26:44.468Z,3.43
2018-09-06T16:29:13.492Z,3.30
2018-09-06T16:31:42.349Z,3.07
2018-09-06T16:34:11.944Z,3.05
2018-09-06T16:36:41.042Z,3.17
2018-09-06T16:39:12.561Z,3.07
2018-09-06T16:41:44.197Z,3.13
2018-09-06T16:44:17.470Z,2.53
2018-09-06T16:46:48.253Z,2.90
2018-09-06T16:49:17.354Z,2.73
2018-09-06T16:51:46.135Z,2.97
2018-09-06T16:54:15.096Z,3.43
2018-09-06T16:56:44.313Z,3.73
2018-09-06T16:59:13.443Z,3.90
2018-09-06T17:01:45.511Z,4.10
2018-09-06T17:04:14.348Z,4.27
2018-09-06T17:06:43.780Z,4.40
2018-09-06T17:09:12.735Z,4.27
2018-09-06T17:11:41.737Z,4.50
2018-09-06T17:14:10.594Z,4.60
2018-09-06T17:16:40.948Z,4.10
2018-09-06T17:19:12.356Z,4.20
2018-09-06T17:21:41.754Z,5.50
2018-09-06T17:24:11.016Z,4.67
2018-09-06T17:26:40.055Z,6.53
2018-09-06T17:29:09.103Z,4.77
2018-09-06T17:31:38.821Z,4.97
2018-09-06T17:34:08.996Z,4.93
2018-09-06T17:36:38.322Z,5.80
2018-09-06T17:39:09.566Z,5.77
2018-09-06T17:41:38.670Z,5.53
2018-09-06T17:44:07.928Z,5.10
2018-09-06T17:46:39.756Z,5.00
2018-09-06T17:49:13.924Z,5.97
2018-09-06T17:51:47.133Z,9.07
2018-09-06T17:54:16.947Z,11.20
2018-09-06T17:56:46.134Z,9.57
2018-09-06T17:59:15.447Z,8.87
2018-09-06T18:01:44.460Z,8.47
2018-09-06T18:04:13.569Z,6.87
2018-09-06T18:06:42.452Z,6.60
2018-09-06T18:09:14.475Z,5.77
2018-09-06T18:11:45.127Z,5.47
2018-09-06T18:14:14.304Z,5.63
2018-09-06T18:16:43.694Z,5.87
2018-09-06T18:19:12.949Z,5.13
2018-09-06T18:21:42.168Z,4.90
2018-09-06T18:24:11.116Z,5.20
2018-09-06T18:26:39.944Z,5.10
2018-09-06T18:29:09.065Z,5.17
2018-09-06T18:31:37.924Z,4.70
2018-09-06T18:34:06.767Z,4.80
2018-09-06T18:36:36.528Z,5.20
2018-09-06T18:39:06.869Z,4.93
2018-09-06T18:41:36.072Z,4.53
2018-09-06T18:44:06.616Z,4.40
2018-09-06T18:46:38.401Z,4.53
2018-09-06T18:49:07.284Z,4.73
2018-09-06T18:51:36.495Z,4.50
2018-09-06T18:54:05.562Z,4.43
2018-09-06T18:56:34.977Z,4.23
2018-09-06T18:59:05.466Z,4.17
2018-09-06T19:01:37.764Z,4.93
2018-09-06T19:04:09.611Z,3.97
2018-09-06T19:06:41.300Z,4.10
2018-09-06T19:09:12.598Z,4.63
2018-09-06T19:11:41.900Z,4.27
2018-09-06T19:14:11.482Z,4.13
2018-09-06T19:16:40.545Z,3.00
2018-09-06T19:19:09.389Z,2.80
2018-09-06T19:21:41.761Z,2.50
2018-09-06T19:24:11.077Z,2.90
2018-09-06T19:26:40.431Z,2.90
2018-09-06T19:29:09.613Z,2.40
2018-09-06T19:31:38.891Z,2.70
2018-09-06T19:34:07.824Z,2.60
2018-09-06T19:36:38.201Z,2.50
2018-09-06T19:39:09.939Z,2.70
2018-09-06T19:41:39.576Z,3.17
2018-09-06T19:44:08.845Z,2.97
2018-09-06T19:46:38.167Z,3.03
2018-09-06T19:49:07.504Z,3.30
2018-09-06T19:51:36.703Z,3.47
2018-09-06T19:54:07.285Z,3.20
2018-09-06T19:56:37.277Z,3.20
2018-09-06T19:59:06.410Z,3.20
2018-09-06T20:01:35.187Z,3.47
2018-09-06T20:04:03.994Z,3.03
2018-09-06T20:06:33.032Z,2.73
2018-09-06T20:09:02.499Z,3.20
2018-09-06T20:11:32.251Z,3.20
2018-09-06T20:14:01.217Z,2.80
2018-09-06T20:16:30.407Z,3.10
2018-09-06T20:18:59.202Z,3.20
2018-09-06T20:21:28.443Z,3.13
2018-09-06T20:23:57.901Z,2.80
2018-09-06T20:26:30.136Z,2.63
2018-09-06T20:28:59.000Z,2.90
2018-09-06T20:31:28.252Z,2.70
2018-09-06T20:33:57.146Z,3.20
2018-09-06T20:36:26.685Z,2.80
2018-09-06T20:38:55.902Z,2.77
2018-09-06T20:41:25.733Z,3.10
2018-09-06T20:43:54.639Z,3.00
2018-09-06T20:46:24.056Z,3.03
2018-09-06T20:48:53.506Z,3.23
2018-09-06T20:51:22.509Z,3.73
2018-09-06T20:53:51.546Z,4.20
2018-09-06T20:56:21.016Z,4.60
2018-09-06T20:58:50.730Z,5.07
2018-09-06T21:01:19.929Z,6.07
2018-09-06T21:03:49.221Z,6.63
2018-09-06T21:06:18.112Z,6.73
2018-09-06T21:08:47.659Z,6.17
2018-09-06T21:11:17.957Z,5.20
2018-09-06T21:13:47.157Z,5.60
2018-09-06T21:16:16.099Z,5.80
2018-09-06T21:18:45.308Z,5.27
2018-09-06T21:21:14.221Z,5.53
2018-09-06T21:23:43.845Z,5.30
2018-09-06T21:26:16.396Z,5.77
2018-09-06T21:28:45.268Z,5.10
2018-09-06T21:31:14.081Z,5.37
2018-09-06T21:33:42.960Z,5.00
2018-09-06T21:36:12.525Z,4.80
2018-09-06T21:38:42.803Z,4.60
2018-09-06T21:41:13.590Z,4.77
2018-09-06T21:43:45.558Z,4.03
2018-09-06T21:46:14.728Z,3.80
2018-09-06T21:48:44.088Z,3.83
2018-09-06T21:51:12.908Z,3.30
2018-09-06T21:53:42.099Z,3.70
2018-09-06T21:56:11.794Z,3.50
2018-09-06T21:58:41.588Z,3.70
2018-09-06T22:01:13.248Z,3.53
2018-09-06T22:03:47.756Z,3.53
2018-09-06T22:06:16.732Z,3.73
2018-09-06T22:08:45.596Z,3.27
2018-09-06T22:11:14.384Z,3.90
2018-09-06T22:13:43.605Z,3.97
2018-09-06T22:16:13.703Z,3.97
2018-09-06T22:18:42.822Z,3.97
2018-09-06T22:21:12.240Z,3.80
2018-09-06T22:23:41.488Z,4.10
2018-09-06T22:26:10.454Z,3.90
2018-09-06T22:28:39.764Z,4.00
2018-09-06T22:31:09.426Z,3.90
2018-09-06T22:33:40.821Z,4.10
2018-09-06T22:36:09.703Z,4.00
2018-09-06T22:38:38.529Z,3.87
2018-09-06T22:41:07.471Z,3.50
2018-09-06T22:43:36.444Z,3.70
2018-09-06T22:46:05.898Z,3.87
2018-09-06T22:48:35.610Z,4.23
2018-09-06T22:51:04.840Z,4.33
2018-09-06T22:53:34.496Z,4.67
2018-09-06T22:56:04.150Z,4.40
2018-09-06T22:58:33.320Z,5.00
2018-09-06T23:01:02.258Z,4.90
2018-09-06T23:03:37.749Z,5.03
2018-09-06T23:06:07.975Z,4.97
2018-09-06T23:08:38.230Z,4.63
2018-09-06T23:11:07.611Z,4.93
2018-09-06T23:13:36.974Z,5.20
2018-09-06T23:16:06.429Z,5.20
2018-09-06T23:18:35.705Z,4.60
2018-09-06T23:21:04.891Z,5.00
2018-09-06T23:23:36.396Z,4.27
2018-09-06T23:26:06.271Z,5.03
2018-09-06T23:28:35.689Z,4.63
2018-09-06T23:31:05.084Z,4.97
2018-09-06T23:33:33.901Z,5.07
2018-09-06T23:36:03.020Z,4.83
2018-09-06T23:38:32.300Z,5.30
2018-09-06T23:41:02.112Z,4.83
2018-09-06T23:43:31.300Z,5.50
2018-09-06T23:46:00.389Z,5.57
2018-09-06T23:48:30.084Z,5.80
2018-09-06T23:50:59.231Z,5.40
2018-09-06T23:53:28.918Z,5.07
2018-09-06T23:55:59.736Z,5.20
2018-09-06T23:58:33.660Z,5.27
